الصفحة الرئيسية
METAR-TAF:

METAR-TAF

مطار :

سات إيل, كيبك, كندا

دائرة عرض: 50-13N, خط طول: 066-16W, ارتفاع: 55 متر

METAR: مفقودة

زمن: 03:07 (07:07 UTC)

توقعات

تاريخ ووقت الإصدار 1ساعة و 27 دقيقة قبل الساعة 05:40UTC
التوقعات صالحة من18 الساعة 06 UTC إلى 19 الساعة 06 UTC
ريح 7 عقدة من الشمال
الرؤية: 10 كم
سماء صافية
من 18 الساعة 1100 UTC
ريح 10 عقدة من الشمال/الشمال الشرقي
الرؤية: 10 كم
غيوم قليلة على ارتفاع 24000 قدم
أصبح
من 18 الساعة 14 UTC إلى 18 الساعة 16 UTC
ريح 12 عقدة من الجنوب/الجنوب الغربي
من 18 الساعة 1800 UTC
ريح 12 عقدة من الجنوب/الجنوب الغربي
الرؤية: 10 كم
غيوم قليلة على ارتفاع 3000 قدم
غيوم قليلة على ارتفاع 24000 قدم
أصبح
من 18 الساعة 20 UTC إلى 18 الساعة 22 UTC
ريح 6 عقدة من الغرب
أصبح
من 19 الساعة 02 UTC إلى 19 الساعة 04 UTC
ريح 3 عقدةمن اتجاهات متغيرة

TAF: CYZV 180540Z 1806/1906 01007KT P6SM SKC FM181100 02010KT P6SM FEW240 BECMG 1814/1816 20012KT FM181800 20012KT P6SM FEW030 FEW240 BECMG 1820/1822 27006KT BECMG 1902/1904 VRB03KT RMK NXT FCST BY 181200Z

أرصاد الطقس والتوقعات من أكثر من 4000 مطار (تقارير الطقس للمطار METAR والتنبؤ بالطقس بالمطارTAF).

المحطات المتاحة هي النقط الصفراء والحمراء على الخريطة.

حرك المؤشر فوق النقطة لمعرفة اسم المحطة.

ثم انقر لمعرفة أرصاد وتوقعات الطقس.

لتغيير الخارطة: اضغط على الأزرار الخضراء مع رمز الصليب الأسود للتكبير. على الزر الأخضر مع شرطة للتصغير، أو على الأسهم الخضراء للخرائط المجاورة.


METAR-TAF: